createdAt,value
2018-01-10T00:00:33.574Z,2.70
2018-01-10T00:03:08.061Z,2.70
2018-01-10T00:05:42.596Z,2.60
2018-01-10T00:08:16.265Z,2.60
2018-01-10T00:10:50.601Z,2.60
2018-01-10T00:13:24.144Z,2.60
2018-01-10T00:15:58.716Z,2.50
2018-01-10T00:18:32.426Z,2.50
2018-01-10T00:21:06.137Z,2.60
2018-01-10T00:23:39.828Z,2.50
2018-01-10T00:26:13.354Z,2.40
2018-01-10T00:28:47.032Z,2.30
2018-01-10T00:31:20.644Z,2.30
2018-01-10T00:33:55.169Z,2.20
2018-01-10T00:36:29.472Z,2.20
2018-01-10T00:39:03.053Z,2.20
2018-01-10T00:41:36.674Z,2.20
2018-01-10T00:44:10.303Z,2.20
2018-01-10T00:46:43.968Z,2.10
2018-01-10T00:49:17.538Z,1.90
2018-01-10T00:51:51.197Z,1.80
2018-01-10T00:54:24.797Z,1.70
2018-01-10T00:56:58.396Z,1.70
2018-01-10T00:59:31.989Z,1.70
2018-01-10T01:02:05.576Z,1.70
2018-01-10T01:04:39.310Z,1.70
2018-01-10T01:07:13.113Z,1.70
2018-01-10T01:09:46.683Z,1.70
2018-01-10T01:12:20.301Z,1.70
2018-01-10T01:14:54.613Z,1.60
2018-01-10T01:17:28.207Z,1.60
2018-01-10T01:20:01.809Z,1.50
2018-01-10T01:22:36.447Z,1.40
2018-01-10T01:25:10.746Z,1.50
2018-01-10T01:27:44.269Z,1.40
2018-01-10T01:30:17.834Z,1.40
2018-01-10T01:32:51.392Z,1.30
2018-01-10T01:35:25.048Z,1.50
2018-01-10T01:37:59.380Z,1.30
2018-01-10T01:40:33.850Z,1.30
2018-01-10T01:43:08.217Z,1.20
2018-01-10T01:45:42.085Z,1.20
2018-01-10T01:48:15.729Z,1.10
2018-01-10T01:50:49.312Z,1.10
2018-01-10T01:53:22.926Z,1.20
2018-01-10T01:55:56.567Z,1.10
2018-01-10T01:58:30.118Z,1.00
2018-01-10T02:01:04.441Z,1.00
2018-01-10T02:03:38.034Z,0.90
2018-01-10T02:06:11.673Z,0.90
2018-01-10T02:08:46.156Z,1.00
2018-01-10T02:11:19.764Z,1.00
2018-01-10T02:13:53.369Z,1.00
2018-01-10T02:16:27.085Z,1.00
2018-01-10T02:19:00.662Z,1.10
2018-01-10T02:21:34.275Z,1.00
2018-01-10T02:24:07.873Z,1.00
2018-01-10T02:26:41.419Z,0.80
2018-01-10T02:29:15.074Z,1.00
2018-01-10T02:31:48.676Z,1.00
2018-01-10T02:34:22.477Z,0.90
2018-01-10T02:36:56.174Z,0.90
2018-01-10T02:39:29.788Z,0.90
2018-01-10T02:42:03.314Z,0.80
2018-01-10T02:44:36.993Z,0.80
2018-01-10T02:47:10.579Z,0.80
2018-01-10T02:49:44.098Z,0.80
2018-01-10T02:52:17.840Z,0.70
2018-01-10T02:54:51.470Z,0.80
2018-01-10T02:57:25.801Z,0.70
2018-01-10T02:59:59.404Z,0.70
2018-01-10T03:02:33.128Z,0.70
2018-01-10T03:05:07.638Z,0.90
2018-01-10T03:07:41.243Z,0.90
2018-01-10T03:10:14.996Z,0.90
2018-01-10T03:12:49.454Z,0.90
2018-01-10T03:15:23.090Z,0.90
2018-01-10T03:17:56.864Z,0.90
2018-01-10T03:20:30.401Z,0.80
2018-01-10T03:23:04.161Z,0.60
2018-01-10T03:25:37.739Z,0.70
2018-01-10T03:28:11.292Z,0.50
2018-01-10T03:30:44.906Z,0.40
2018-01-10T03:33:18.452Z,0.40
2018-01-10T03:35:52.792Z,0.50
2018-01-10T03:38:26.482Z,0.50
2018-01-10T03:41:00.050Z,0.50
2018-01-10T03:43:33.596Z,0.50
2018-01-10T03:46:07.304Z,0.50
2018-01-10T03:48:40.886Z,0.70
2018-01-10T03:51:15.183Z,0.80
2018-01-10T03:53:48.813Z,0.70
2018-01-10T03:56:23.129Z,0.50
2018-01-10T03:58:56.716Z,0.50
2018-01-10T04:01:30.312Z,0.50
2018-01-10T04:04:04.959Z,0.40
2018-01-10T04:06:38.582Z,0.40
2018-01-10T04:09:12.147Z,0.50
2018-01-10T04:11:46.477Z,0.30
2018-01-10T04:14:20.981Z,0.40
2018-01-10T04:16:55.435Z,0.40
2018-01-10T04:19:29.165Z,0.40
2018-01-10T04:22:02.939Z,0.30
2018-01-10T04:24:36.893Z,0.20
2018-01-10T04:27:10.599Z,0.30
2018-01-10T04:29:45.092Z,0.30
2018-01-10T04:32:19.784Z,0.30
2018-01-10T04:34:53.444Z,0.20
2018-01-10T04:37:27.042Z,0.20
2018-01-10T04:40:00.783Z,0.20
2018-01-10T04:42:34.377Z,0.10
2018-01-10T04:45:08.070Z,0.10
2018-01-10T04:47:41.687Z,0.10
2018-01-10T04:50:15.279Z,0.00
2018-01-10T04:52:48.913Z,0.00
2018-01-10T04:55:22.726Z,0.10
2018-01-10T04:57:56.498Z,0.00
2018-01-10T05:00:30.110Z,0.10
2018-01-10T05:03:03.697Z,0.00
2018-01-10T05:05:38.324Z,-0.10
2018-01-10T05:08:11.993Z,-0.20
2018-01-10T05:10:45.659Z,-0.10
2018-01-10T05:13:19.336Z,-0.20
2018-01-10T05:15:53.076Z,-0.10
2018-01-10T05:18:26.732Z,-0.10
2018-01-10T05:21:00.278Z,-0.10
2018-01-10T05:23:33.863Z,0.00
2018-01-10T05:26:08.252Z,-0.20
2018-01-10T05:28:41.876Z,-0.20
2018-01-10T05:31:15.448Z,-0.20
2018-01-10T05:33:48.980Z,-0.10
2018-01-10T05:36:22.654Z,-0.20
2018-01-10T05:38:56.412Z,-0.10
2018-01-10T05:41:30.198Z,-0.10
2018-01-10T05:44:03.765Z,-0.10
2018-01-10T05:46:38.292Z,-0.10
2018-01-10T05:49:11.928Z,-0.10
2018-01-10T05:51:45.692Z,-0.10
2018-01-10T05:54:19.375Z,-0.10
2018-01-10T05:56:53.874Z,-0.10
2018-01-10T05:59:27.555Z,-0.10
2018-01-10T06:02:01.217Z,0.00
2018-01-10T06:04:34.769Z,0.10
2018-01-10T06:07:08.448Z,0.10
2018-01-10T06:09:42.128Z,0.00
2018-01-10T06:12:15.631Z,0.00
2018-01-10T06:14:49.224Z,0.00
2018-01-10T06:17:23.740Z,-0.10
2018-01-10T06:19:57.506Z,-0.10
2018-01-10T06:22:31.056Z,-0.10
2018-01-10T06:25:04.961Z,-0.20
2018-01-10T06:27:38.640Z,-0.30
2018-01-10T06:30:12.265Z,-0.40
2018-01-10T06:32:46.794Z,-0.20
2018-01-10T06:35:20.382Z,-0.20
2018-01-10T06:37:53.993Z,-0.20
2018-01-10T06:40:27.711Z,-0.20
2018-01-10T06:43:01.293Z,-0.20
2018-01-10T06:45:34.884Z,-0.10
2018-01-10T06:48:08.493Z,-0.10
2018-01-10T15:22:13.299Z,7.30
2018-01-10T15:24:46.941Z,7.30
2018-01-10T15:27:21.341Z,7.20
2018-01-10T15:29:55.031Z,7.10
2018-01-10T15:32:28.563Z,7.20
2018-01-10T15:35:02.856Z,7.00
2018-01-10T15:37:36.360Z,7.00
2018-01-10T15:40:09.911Z,6.90
2018-01-10T15:42:43.498Z,6.80
2018-01-10T15:45:17.020Z,6.60
2018-01-10T15:47:50.555Z,6.50
2018-01-10T15:50:24.201Z,6.70
2018-01-10T15:52:57.940Z,6.60
2018-01-10T15:55:32.493Z,6.40
2018-01-10T15:58:06.043Z,6.40
2018-01-10T16:00:39.696Z,6.40
2018-01-10T16:03:13.256Z,6.10
2018-01-10T16:05:47.580Z,5.20
2018-01-10T16:08:21.187Z,5.20
2018-01-10T16:10:54.783Z,5.30
2018-01-10T16:13:28.391Z,5.40
2018-01-10T16:16:01.992Z,5.40
2018-01-10T16:18:35.573Z,5.50
2018-01-10T16:21:09.125Z,5.40
2018-01-10T16:23:42.827Z,5.30
2018-01-10T16:26:16.324Z,5.20
2018-01-10T16:28:49.896Z,5.10
2018-01-10T16:31:24.205Z,4.70
2018-01-10T16:33:57.789Z,4.70
2018-01-10T16:36:31.435Z,4.70
2018-01-10T16:39:04.994Z,4.60
2018-01-10T16:41:39.322Z,4.30
2018-01-10T16:44:13.007Z,4.30
2018-01-10T16:46:47.341Z,4.20
2018-01-10T16:49:21.751Z,4.10
2018-01-10T16:51:56.064Z,4.20
2018-01-10T16:54:29.776Z,4.10
2018-01-10T16:57:03.313Z,4.00
2018-01-10T16:59:36.894Z,4.00
2018-01-10T17:02:10.439Z,3.90
2018-01-10T17:04:44.792Z,3.70
2018-01-10T17:07:18.329Z,3.70
2018-01-10T17:09:51.898Z,3.40
2018-01-10T17:12:26.413Z,3.20
2018-01-10T17:15:00.034Z,3.20
2018-01-10T17:17:33.598Z,3.20
2018-01-10T17:20:07.147Z,3.10
2018-01-10T17:22:40.843Z,3.10
2018-01-10T17:25:14.446Z,3.00
2018-01-10T17:27:47.950Z,2.90
2018-01-10T17:30:21.541Z,2.80
2018-01-10T17:32:55.943Z,2.70
2018-01-10T17:35:30.472Z,2.70
2018-01-10T17:38:04.168Z,2.70
2018-01-10T17:40:37.825Z,2.70
2018-01-10T17:43:12.298Z,2.60
2018-01-10T17:45:46.102Z,2.60
2018-01-10T17:48:19.677Z,2.60
2018-01-10T17:50:53.220Z,2.50
2018-01-10T17:53:26.917Z,2.50
2018-01-10T17:56:00.493Z,2.40
2018-01-10T17:58:34.000Z,2.50
2018-01-10T18:01:07.601Z,2.30
2018-01-10T18:03:41.120Z,2.40
2018-01-10T18:06:14.683Z,2.40
2018-01-10T18:08:48.258Z,2.30
2018-01-10T18:11:21.820Z,2.20
2018-01-10T18:13:56.112Z,1.90
2018-01-10T18:16:29.799Z,1.90
2018-01-10T18:19:03.420Z,1.80
2018-01-10T18:21:37.015Z,1.90
2018-01-10T18:24:10.537Z,1.80
2018-01-10T18:26:44.109Z,1.70
2018-01-10T18:29:17.700Z,1.80
2018-01-10T18:31:52.149Z,1.70
2018-01-10T18:34:25.695Z,1.70
2018-01-10T18:36:59.332Z,1.70
2018-01-10T18:39:33.036Z,1.60
2018-01-10T18:42:06.559Z,1.60
2018-01-10T18:44:40.123Z,1.50
2018-01-10T18:47:13.734Z,1.50
2018-01-10T18:49:48.154Z,1.40
2018-01-10T18:52:21.717Z,1.40
2018-01-10T18:54:55.228Z,1.40
2018-01-10T18:57:28.804Z,1.40
2018-01-10T19:00:02.469Z,1.40
2018-01-10T19:02:36.016Z,1.50
2018-01-10T19:05:09.632Z,1.50
2018-01-10T19:07:43.971Z,1.30
2018-01-10T19:10:17.683Z,1.30
2018-01-10T19:12:51.267Z,1.30
2018-01-10T19:15:24.866Z,1.30
2018-01-10T19:17:58.683Z,1.40
2018-01-10T19:20:32.187Z,1.60
2018-01-10T19:23:05.895Z,1.40
2018-01-10T19:25:40.192Z,1.40
2018-01-10T19:28:13.780Z,1.40
2018-01-10T19:30:47.331Z,1.40
2018-01-10T19:33:21.024Z,1.20
2018-01-10T19:35:54.547Z,1.10
2018-01-10T19:38:28.297Z,1.10
2018-01-10T19:41:02.601Z,1.20
2018-01-10T19:43:36.342Z,1.10
2018-01-10T19:46:09.898Z,1.10
2018-01-10T19:48:43.528Z,1.00
2018-01-10T19:51:17.191Z,1.00
2018-01-10T19:53:50.806Z,1.00
2018-01-10T19:56:24.539Z,0.90
2018-01-10T19:58:58.264Z,0.90
2018-01-10T20:01:32.569Z,0.80
2018-01-10T20:04:06.247Z,0.70
2018-01-10T20:06:39.771Z,0.80
2018-01-10T20:09:13.354Z,0.80
2018-01-10T20:11:46.880Z,0.80
2018-01-10T20:14:21.302Z,0.80
2018-01-10T20:16:55.079Z,0.70
2018-01-10T20:19:28.602Z,0.80
2018-01-10T20:22:02.197Z,0.80
2018-01-10T20:24:35.796Z,0.80
2018-01-10T20:27:09.372Z,1.00
2018-01-10T20:29:42.961Z,1.00
2018-01-10T20:32:16.492Z,0.90
2018-01-10T20:34:50.061Z,0.90
2018-01-10T20:37:23.674Z,0.80
2018-01-10T20:39:57.260Z,0.80
2018-01-10T20:42:30.801Z,0.90
2018-01-10T20:45:04.438Z,1.00
2018-01-10T20:47:37.980Z,0.90
2018-01-10T20:50:11.737Z,0.80
2018-01-10T20:52:45.428Z,0.80
2018-01-10T20:55:19.828Z,0.70
2018-01-10T20:57:53.674Z,0.70
2018-01-10T21:00:27.197Z,0.60
2018-01-10T21:03:00.770Z,0.60
2018-01-10T21:05:34.502Z,0.60
2018-01-10T21:08:08.104Z,0.60
2018-01-10T21:10:41.579Z,0.70
2018-01-10T21:13:15.097Z,0.70
2018-01-10T21:15:48.630Z,0.70
2018-01-10T21:18:22.274Z,0.80
2018-01-10T21:20:56.002Z,0.70
2018-01-10T21:23:29.544Z,0.70
2018-01-10T21:26:03.822Z,0.70
2018-01-10T21:28:37.544Z,0.70
2018-01-10T21:31:11.179Z,0.70
2018-01-10T21:33:44.754Z,0.60
2018-01-10T21:36:18.371Z,0.60
2018-01-10T21:38:52.056Z,0.60
2018-01-10T21:41:27.101Z,0.40
2018-01-10T21:44:00.815Z,0.40
2018-01-10T21:46:34.452Z,0.30
2018-01-10T21:49:08.280Z,0.10
2018-01-10T21:51:42.824Z,0.20
2018-01-10T21:54:16.440Z,0.20
2018-01-10T21:56:50.055Z,0.20
2018-01-10T21:59:23.586Z,0.20
2018-01-10T22:01:57.174Z,0.20
2018-01-10T22:04:30.760Z,0.20
2018-01-10T22:07:05.013Z,0.40
2018-01-10T22:09:40.140Z,0.50
2018-01-10T22:12:15.321Z,0.40
2018-01-10T22:14:49.082Z,0.50
2018-01-10T22:17:23.581Z,0.70
2018-01-10T22:20:13.154Z,0.70
2018-01-10T22:22:47.078Z,0.40
2018-01-10T22:25:20.755Z,0.20
2018-01-10T22:27:54.537Z,0.30
2018-01-10T22:30:37.291Z,0.30
2018-01-10T22:33:11.119Z,0.20
2018-01-10T22:35:44.891Z,0.30
2018-01-10T22:38:19.925Z,0.40
2018-01-10T22:40:53.848Z,0.40
2018-01-10T22:43:27.568Z,0.30
2018-01-10T22:46:02.158Z,0.30
2018-01-10T22:48:36.707Z,0.30
2018-01-10T22:51:11.063Z,0.30
2018-01-10T22:53:44.787Z,0.30
2018-01-10T22:56:19.072Z,0.20
2018-01-10T22:58:52.941Z,0.20
2018-01-10T23:01:27.661Z,0.10
2018-01-10T23:04:02.354Z,0.10
2018-01-10T23:06:36.716Z,0.10
2018-01-10T23:09:10.597Z,0.10
2018-01-10T23:11:46.852Z,0.10
2018-01-10T23:14:21.340Z,0.10
2018-01-10T23:16:55.057Z,0.10
2018-01-10T23:19:29.851Z,0.00
2018-01-10T23:22:04.276Z,0.00
2018-01-10T23:24:37.972Z,0.00
2018-01-10T23:27:11.786Z,0.00
2018-01-10T23:29:45.668Z,0.00
2018-01-10T23:32:19.505Z,0.10
2018-01-10T23:34:54.302Z,0.20
2018-01-10T23:37:28.015Z,0.20
2018-01-10T23:40:01.876Z,0.20
2018-01-10T23:42:35.838Z,0.20
2018-01-10T23:45:09.549Z,0.10
2018-01-10T23:47:44.220Z,0.00
2018-01-10T23:50:18.124Z,0.00
2018-01-10T23:52:52.265Z,0.00
2018-01-10T23:55:26.084Z,-0.10
2018-01-10T23:58:01.237Z,-0.10
